Lähialueen lentokenttien sää

 

EFLP - Lappeenranta, Finland
Distance from station: I 35km
Päivitetty: 14/11/2018 11:20
Vaihtelevaa
Vaihtelevaa
 Tuulen suunta ELO
Tuuli: ELO 4 km/h
Lämpötila: 5°C
Kastepiste: 5°C
Kosteus: 100%
Ilmanpaine: 1017 hPa
Clouds: Vaihtelevaa
Visibility: 8 km
Cloud details: Few Clouds 61 m
Vaihtelevaa 579 m
2018/11/14 09:20 EFLP 140920Z AUTO 21002KT 8000 FEW002 OVC019 05/05 Q1017
EFUT - Utti (fin-Afb), Finland
Distance from station: LO 42km
Päivitetty: 14/11/2018 11:20
Enimmäkseen pilvistä
Enimmäkseen pilvistä
 Tuulen suunta E
Tuuli: E 7 km/h
Lämpötila: 5°C
Wind Chill: 3°C
Kastepiste: 5°C
Kosteus: 100%
Ilmanpaine: 1017 hPa
Clouds: Enimmäkseen pilvistä
Visibility: 10 km
Cloud details: Few Clouds 61 m
Enimmäkseen pilvistä 792 m
2018/11/14 09:20 EFUT 140920Z 19004KT 9999 FEW002 BKN026 05/05 Q1017
 
EFMI - Mikkeli, Finland
Distance from station: P 66km
Päivitetty: 14/11/2018 11:20
Vaihtelevaa
Vaihtelevaa
 Tuulen suunta LLU
Tuuli: LLU 6 km/h
Lämpötila: 5°C
Kastepiste: 4°C
Kosteus: 93%
Ilmanpaine: 1017 hPa
Clouds: Vaihtelevaa
Visibility: 10 km
Cloud details: Vaihtelevaa 366 m
2018/11/14 09:20 EFMI 140920Z AUTO 29003KT 9999 OVC012 05/04 Q1017
EFVR - Varkaus, Finland
Distance from station: P 117km
Päivitetty: 15/04/2016 08:50
NOT Current
Selkeätä
Selkeätä
 Tuulen suunta PLU
Tuuli: PLU 15 km/h
Lämpötila: -1°C
Wind Chill: -6°C
Kastepiste: -8°C
Kosteus: 59%
Ilmanpaine: 1005 hPa
Yhteenveto: Selkeätä
Visibility: greater than 10 km
2016/04/15 05:50 EFVR 150550Z AUTO 33008KT CAVOK M01/M08 Q1005
 
EFSA - Savonlinna (aut), Finland
Distance from station: KO 119km
Päivitetty: 14/11/2018 11:20
Vaihtelevaa
Vaihtelevaa
 Tuulen suunta L
Tuuli: L 7 km/h
Lämpötila: 5°C
Wind Chill: 3°C
Kastepiste: 4°C
Kosteus: 93%
Ilmanpaine: 1016 hPa
Clouds: Vaihtelevaa
Visibility: 10 km
Cloud details: Vaihtelevaa 152 m
2018/11/14 09:20 EFSA 140920Z AUTO 27004KT 230V320 9999 OVC005 05/04 Q1016
EFHA - Halli (fin-Afb), Finland
Distance from station: LLU 164km
Päivitetty: 14/11/2018 11:20
Enimmäkseen pilvistä
Enimmäkseen pilvistä
 Tuulen suunta L
Tuuli: L 11 km/h
Lämpötila: 5°C
Wind Chill: 2°C
Kastepiste: 4°C
Kosteus: 93%
Ilmanpaine: 1017 hPa
Clouds: Enimmäkseen pilvistä
Visibility: 10 km
Cloud details: Enimmäkseen pilvistä 366 m
2018/11/14 09:20 EFHA 140920Z 27006KT 9999 BKN012 05/04 Q1017
 
EFHK - Helsinki/Vantaa, Finland
Distance from station: LLO 165km
Päivitetty: 14/11/2018 11:20
Enimmäkseen pilvistä
Enimmäkseen pilvistä
 Tuulen suunta LLO
Tuuli: LLO 4 km/h
Lämpötila: 7°C
Kastepiste: 7°C
Kosteus: 100%
Ilmanpaine: 1018 hPa
Clouds: Enimmäkseen pilvistä
Visibility: 10 km
Cloud details: Enimmäkseen pilvistä 122 m
2018/11/14 09:20 EFHK 140920Z 24002KT 9999 BKN004 07/07 Q1018 BECMG BKN005
EFHF - Helsinki/Malmi, Finland
Distance from station: LO 165km
Päivitetty: 06/03/2017 17:50
NOT Current
Selkeätä
Selkeätä
 Tuulen suunta KO
Tuuli: KO 11 km/h
Lämpötila: -2°C
Wind Chill: -6°C
Kastepiste: -11°C
Kosteus: 51%
Ilmanpaine: 1021 hPa
Yhteenveto: Selkeätä
Visibility: greater than 10 km
2017/03/06 15:50 EFHF 061550Z 04006KT 330V100 CAVOK M02/M11 Q1021
 
EFJY - Jyvaskyla (mil/C, Finland
Distance from station: LU 170km
Päivitetty: 14/11/2018 11:20
Enimmäkseen pilvistä
Enimmäkseen pilvistä
 Tuulen suunta L
Tuuli: L 9 km/h
Lämpötila: 4°C
Wind Chill: 2°C
Kastepiste: 3°C
Kosteus: 93%
Ilmanpaine: 1016 hPa
Clouds: Enimmäkseen pilvistä
Visibility: 10 km
Cloud details: Enimmäkseen pilvistä 183 m
2018/11/14 09:20 EFJY 140920Z 27005KT 9999 BKN006 04/03 Q1016